Time;durP1;ratioP1;P1;durP2;ratioP2;P2;SDS_P1;SDS_P2;PMS_P1;PMS_P2;Temp;Humidity;BMP_temperature;BMP_pressure;BME280_temperature;BME280_humidity;BME280_pressure;Samples;Min_cycle;Max_cycle;Signal;HPM_P1;HPM_P2
2022/04/14 00:01:47;;;;;;;22.10;12.05;;;17.00;96.10;;;;;;5032588;28;20547;-73
2022/04/14 00:04:13;;;;;;;18.35;10.85;;;16.90;96.10;;;;;;5032986;28;20049;-73
2022/04/14 00:06:38;;;;;;;23.35;11.32;;;16.90;95.70;;;;;;5027976;28;20056;-73
2022/04/14 00:09:04;;;;;;;20.38;10.82;;;16.90;95.90;;;;;;5023807;28;20114;-72
2022/04/14 00:11:30;;;;;;;19.15;10.45;;;16.80;95.90;;;;;;5032282;28;20083;-73
2022/04/14 00:13:55;;;;;;;22.17;11.90;;;16.80;95.90;;;;;;5032206;28;20033;-73
2022/04/14 00:16:21;;;;;;;19.25;11.02;;;16.80;95.80;;;;;;5032579;28;20116;-73
2022/04/14 00:18:47;;;;;;;24.60;11.23;;;16.90;96.00;;;;;;5032135;28;20434;-73
2022/04/14 00:21:12;;;;;;;21.98;11.88;;;16.80;96.30;;;;;;5032075;28;20463;-73
2022/04/14 00:23:38;;;;;;;27.50;12.55;;;16.80;96.30;;;;;;5047544;28;20083;-72
2022/04/14 00:26:06;;;;;;;23.17;11.75;;;16.80;96.40;;;;;;5032023;28;20075;-73
2022/04/14 00:28:32;;;;;;;24.15;12.23;;;16.80;96.50;;;;;;5032343;28;20033;-73
2022/04/14 00:30:59;;;;;;;21.83;11.35;;;16.80;96.60;;;;;;5047378;28;20092;-73
2022/04/14 00:33:26;;;;;;;22.07;11.90;;;16.70;96.60;;;;;;5031882;28;20099;-74
2022/04/14 00:35:52;;;;;;;26.42;12.18;;;16.80;96.60;;;;;;5031734;28;21128;-73
2022/04/14 00:38:17;;;;;;;21.38;11.52;;;16.70;96.70;;;;;;5046520;28;20734;-73
2022/04/14 00:40:43;;;;;;;26.17;12.95;;;16.70;96.60;;;;;;5031701;28;20021;-71
2022/04/14 00:43:08;;;;;;;23.90;11.45;;;16.70;96.60;;;;;;5032175;28;20471;-73
2022/04/14 00:45:34;;;;;;;24.92;12.82;;;16.70;96.60;;;;;;5031605;28;20030;-73
2022/04/14 00:48:00;;;;;;;21.05;11.80;;;16.70;96.60;;;;;;5047310;28;20040;-74
2022/04/14 00:50:25;;;;;;;24.90;12.48;;;16.70;96.80;;;;;;5031591;28;20072;-73
2022/04/14 00:52:53;;;;;;;23.88;11.57;;;16.70;96.80;;;;;;5031448;28;20372;-74
2022/04/14 00:55:18;;;;;;;20.27;11.95;;;16.70;96.90;;;;;;5031833;28;20022;-73
2022/04/14 00:57:44;;;;;;;25.75;11.40;;;16.60;97.00;;;;;;5031446;28;20040;-73
2022/04/14 01:00:10;;;;;;;23.20;12.52;;;16.60;97.00;;;;;;5031221;28;20029;-74
2022/04/14 01:02:35;;;;;;;27.77;12.13;;;16.60;97.10;;;;;;5030408;28;20040;-73
2022/04/14 01:05:02;;;;;;;26.15;12.18;;;16.60;97.30;;;;;;5031167;28;20052;-71
2022/04/14 01:07:29;;;;;;;23.10;11.80;;;16.60;97.10;;;;;;5031782;28;20029;-73
2022/04/14 01:09:56;;;;;;;25.93;13.20;;;16.60;97.10;;;;;;5031339;28;20036;-72
2022/04/14 01:12:23;;;;;;;22.15;11.95;;;16.60;97.10;;;;;;5031017;28;20112;-73
2022/04/14 01:14:49;;;;;;;26.50;12.45;;;16.50;97.20;;;;;;5031139;28;20351;-73
2022/04/14 01:17:15;;;;;;;22.25;12.10;;;16.60;97.20;;;;;;5031115;28;20270;-72
2022/04/14 01:19:41;;;;;;;26.77;12.70;;;16.60;97.50;;;;;;5031511;28;20022;-73
2022/04/14 01:22:24;;;;;;;24.55;13.13;;;16.60;97.40;;;;;;5031020;28;20523;-73
2022/04/14 01:24:53;;;;;;;23.45;12.93;;;16.40;97.80;;;;;;5031135;28;20053;-73
2022/04/14 01:27:19;;;;;;;23.42;13.13;;;16.40;97.60;;;;;;5031233;28;20030;-73
2022/04/14 01:29:46;;;;;;;25.50;13.32;;;16.40;97.80;;;;;;5046671;28;20025;-72
2022/04/14 01:32:11;;;;;;;29.83;14.25;;;16.30;98.00;;;;;;5031396;28;20037;-72
2022/04/14 01:34:37;;;;;;;28.33;13.05;;;16.40;97.80;;;;;;5031257;28;20026;-73
2022/04/14 01:37:03;;;;;;;27.70;13.65;;;16.30;98.10;;;;;;5048572;28;20190;-73
2022/04/14 01:39:29;;;;;;;27.40;13.38;;;16.40;97.90;;;;;;5050830;28;20078;-72
2022/04/14 01:41:55;;;;;;;25.58;13.70;;;16.40;98.00;;;;;;5050926;28;20055;-73
2022/04/14 01:44:21;;;;;;;22.73;13.63;;;16.40;98.00;;;;;;5050685;28;20510;-73
2022/04/14 01:46:46;;;;;;;27.02;13.95;;;16.50;98.20;;;;;;5050830;28;20029;-72
2022/04/14 01:49:12;;;;;;;25.13;13.45;;;16.50;98.00;;;;;;5052153;28;20025;-72
2022/04/14 01:51:38;;;;;;;28.40;13.85;;;16.40;98.20;;;;;;5054728;28;20037;-71
2022/04/14 01:54:04;;;;;;;21.75;11.63;;;16.40;98.40;;;;;;5054731;28;20030;-73
2022/04/14 01:56:30;;;;;;;23.02;11.90;;;16.40;98.40;;;;;;5054604;28;20033;-73
2022/04/14 01:58:57;;;;;;;23.33;11.57;;;16.30;98.50;;;;;;5054455;28;20516;-72
2022/04/14 02:01:23;;;;;;;15.52;9.68;;;16.30;98.50;;;;;;5055125;28;20065;-73
2022/04/14 02:03:49;;;;;;;17.27;9.40;;;16.20;98.80;;;;;;5055028;28;20060;-73
2022/04/14 02:06:15;;;;;;;16.92;8.88;;;16.20;98.80;;;;;;5054562;28;20033;-72
2022/04/14 02:08:41;;;;;;;13.38;8.40;;;16.10;98.80;;;;;;5054746;28;20025;-74
2022/04/14 02:11:07;;;;;;;15.00;7.82;;;16.10;99.00;;;;;;5054553;28;20041;-73
2022/04/14 02:13:34;;;;;;;12.73;7.50;;;16.10;98.90;;;;;;5055219;28;20090;-74
2022/04/14 02:16:00;;;;;;;14.77;7.63;;;16.10;98.80;;;;;;5054873;28;20033;-72
2022/04/14 02:18:26;;;;;;;13.98;7.97;;;16.00;99.40;;;;;;5054752;28;20071;-73
2022/04/14 02:20:52;;;;;;;12.27;6.78;;;16.10;99.40;;;;;;5054805;28;20033;-72
2022/04/14 02:23:18;;;;;;;11.32;5.70;;;16.10;99.30;;;;;;5054271;28;20075;-73
2022/04/14 02:25:44;;;;;;;11.60;5.38;;;16.00;99.30;;;;;;5054285;28;20048;-72
2022/04/14 02:28:09;;;;;;;10.60;4.75;;;16.00;99.50;;;;;;5054702;28;20053;-73
2022/04/14 02:30:35;;;;;;;8.65;4.40;;;15.90;99.50;;;;;;5054302;28;20462;-73
2022/04/14 02:33:02;;;;;;;5.72;4.30;;;15.70;99.70;;;;;;5054250;28;20412;-73
2022/04/14 02:35:27;;;;;;;9.30;4.57;;;15.80;99.60;;;;;;5054106;28;20033;-72
2022/04/14 02:37:55;;;;;;;5.93;3.90;;;15.70;99.80;;;;;;5054024;28;20466;-72
2022/04/14 02:40:20;;;;;;;5.65;3.58;;;15.70;99.90;;;;;;5054464;28;20021;-72
2022/04/14 02:42:47;;;;;;;5.00;3.38;;;15.80;99.90;;;;;;5053970;28;20021;-73
2022/04/14 02:45:12;;;;;;;4.43;3.00;;;15.80;99.90;;;;;;5054102;28;20029;-72
2022/04/14 02:47:38;;;;;;;6.35;3.53;;;15.70;99.90;;;;;;5053992;28;20481;-72
2022/04/14 02:50:05;;;;;;;7.90;3.65;;;15.70;99.90;;;;;;5054478;28;20032;-72
2022/04/14 02:52:30;;;;;;;5.03;3.22;;;15.60;99.90;;;;;;5054184;28;20029;-73
2022/04/14 02:54:56;;;;;;;5.53;3.78;;;15.60;99.90;;;;;;5053955;28;20562;-74
2022/04/14 02:57:22;;;;;;;5.82;3.83;;;15.70;99.90;;;;;;5053637;28;20118;-73
2022/04/14 02:59:47;;;;;;;7.53;4.00;;;15.80;99.90;;;;;;5053689;28;20082;-74
2022/04/14 03:02:13;;;;;;;6.97;3.80;;;15.80;99.90;;;;;;5053175;28;20186;-73
2022/04/14 03:04:38;;;;;;;8.18;3.65;;;15.80;99.90;;;;;;5053927;28;20417;-73
2022/04/14 03:07:04;;;;;;;5.35;3.15;;;15.80;99.90;;;;;;5053504;28;20041;-73
2022/04/14 03:09:30;;;;;;;5.75;3.55;;;15.80;99.90;;;;;;5053599;28;20568;-73
2022/04/14 03:11:55;;;;;;;5.55;3.45;;;15.80;99.90;;;;;;5053468;28;20040;-73
2022/04/14 03:14:21;;;;;;;3.60;3.10;;;15.70;99.90;;;;;;5053540;28;20099;-73
2022/04/14 03:16:46;;;;;;;5.22;3.38;;;15.70;99.90;;;;;;5053273;28;20094;-73
2022/04/14 03:19:12;;;;;;;7.07;3.97;;;15.70;99.90;;;;;;5052604;28;20029;-73
2022/04/14 03:21:38;;;;;;;7.15;3.95;;;15.70;99.90;;;;;;5053158;28;20029;-73
2022/04/14 03:24:04;;;;;;;9.52;4.50;;;15.50;99.90;;;;;;5053117;28;20029;-74
2022/04/14 03:26:29;;;;;;;7.90;4.03;;;15.50;99.90;;;;;;5053117;28;20029;-74
2022/04/14 03:28:55;;;;;;;7.70;4.25;;;15.50;99.90;;;;;;5053003;28;20249;-74
2022/04/14 03:31:20;;;;;;;7.82;4.45;;;15.60;99.90;;;;;;5053488;28;20053;-74
2022/04/14 03:33:46;;;;;;;6.68;5.30;;;15.60;99.90;;;;;;5053042;28;20403;-74
2022/04/14 03:36:11;;;;;;;7.38;4.90;;;15.40;99.90;;;;;;5051526;28;20141;-74
2022/04/14 03:38:37;;;;;;;8.70;5.07;;;15.40;99.90;;;;;;5052772;28;20135;-73
2022/04/14 03:41:07;;;;;;;13.15;5.10;;;15.30;99.90;;;;;;5052933;28;20471;-74
2022/04/14 03:43:34;;;;;;;8.82;5.10;;;15.40;99.90;;;;;;5053196;28;20035;-73
2022/04/14 03:46:00;;;;;;;5.68;4.55;;;15.30;99.90;;;;;;5052841;28;20033;-74
2022/04/14 03:48:25;;;;;;;6.43;4.28;;;15.30;99.90;;;;;;5052762;28;20465;-73
2022/04/14 03:50:51;;;;;;;9.20;5.90;;;15.20;99.90;;;;;;5052589;28;20576;-73
2022/04/14 03:53:18;;;;;;;5.65;4.20;;;15.30;99.90;;;;;;5052544;28;20033;-72
2022/04/14 03:55:46;;;;;;;6.28;4.13;;;15.20;99.90;;;;;;5052587;28;20455;-72
2022/04/14 03:58:12;;;;;;;6.72;4.10;;;15.20;99.90;;;;;;5052817;28;20606;-72
2022/04/14 04:00:37;;;;;;;6.45;4.03;;;15.10;99.90;;;;;;5052491;28;20104;-73
2022/04/14 04:03:03;;;;;;;6.13;3.88;;;15.10;99.90;;;;;;5052380;28;20348;-73
2022/04/14 04:05:28;;;;;;;6.22;4.00;;;15.10;99.90;;;;;;5052419;28;20086;-74
2022/04/14 04:07:54;;;;;;;6.95;4.25;;;15.10;99.90;;;;;;5052132;28;20060;-73
2022/04/14 04:10:19;;;;;;;8.82;4.93;;;15.20;99.90;;;;;;5051531;28;20028;-74
2022/04/14 04:12:45;;;;;;;7.10;4.25;;;15.30;99.90;;;;;;5051205;28;20119;-72
2022/04/14 04:15:12;;;;;;;6.88;4.88;;;15.30;99.90;;;;;;5052058;28;20044;-72
2022/04/14 04:17:39;;;;;;;7.45;4.07;;;15.40;99.90;;;;;;5051988;28;20079;-73
2022/04/14 04:20:05;;;;;;;8.05;4.88;;;15.40;99.90;;;;;;5051994;28;20036;-73
2022/04/14 04:22:33;;;;;;;8.45;5.10;;;15.40;99.90;;;;;;5052459;28;20100;-72
2022/04/14 04:24:59;;;;;;;6.05;4.88;;;15.50;99.90;;;;;;5052035;28;20033;-74
2022/04/14 04:27:25;;;;;;;9.20;4.78;;;15.40;99.90;;;;;;5051768;28;20032;-73
2022/04/14 04:29:52;;;;;;;6.82;5.07;;;15.40;99.90;;;;;;5051833;28;20029;-74
2022/04/14 04:32:17;;;;;;;8.25;4.55;;;15.40;99.90;;;;;;5051566;28;20032;-73
2022/04/14 04:34:43;;;;;;;8.00;4.97;;;15.40;99.90;;;;;;5051649;28;20024;-73
2022/04/14 04:37:08;;;;;;;8.15;4.90;;;15.40;99.90;;;;;;5051990;28;20045;-73
2022/04/14 04:39:34;;;;;;;8.52;5.30;;;15.40;99.90;;;;;;5051657;28;20081;-74
2022/04/14 04:42:00;;;;;;;7.85;5.07;;;15.40;99.90;;;;;;5051259;28;20047;-74
2022/04/14 04:44:25;;;;;;;9.10;5.60;;;15.30;99.90;;;;;;5051636;28;20441;-73
2022/04/14 04:46:51;;;;;;;10.65;5.47;;;15.30;99.90;;;;;;5051473;28;20043;-72
2022/04/14 04:49:16;;;;;;;8.13;5.57;;;15.30;99.90;;;;;;5051869;28;20037;-73
2022/04/14 04:51:42;;;;;;;8.70;5.25;;;15.20;99.90;;;;;;5051401;28;20029;-74
2022/04/14 04:54:07;;;;;;;8.40;4.97;;;15.20;99.90;;;;;;5051475;28;20029;-73
2022/04/14 04:56:33;;;;;;;7.30;4.93;;;15.20;99.90;;;;;;5051388;28;20071;-74
2022/04/14 04:58:58;;;;;;;6.47;4.68;;;15.20;99.90;;;;;;5051220;28;20029;-72
2022/04/14 05:01:24;;;;;;;6.35;4.32;;;15.20;99.90;;;;;;5052020;28;20032;-73
2022/04/14 05:03:50;;;;;;;7.65;4.97;;;15.20;99.90;;;;;;5051188;28;20163;-73
2022/04/14 05:06:16;;;;;;;11.45;5.13;;;15.20;99.90;;;;;;5051163;28;20029;-74
2022/04/14 05:08:42;;;;;;;7.50;4.57;;;15.20;99.90;;;;;;5051068;28;20036;-75
2022/04/14 05:11:08;;;;;;;9.02;4.55;;;15.30;99.90;;;;;;5051240;28;20040;-73
2022/04/14 05:13:34;;;;;;;9.05;3.95;;;15.20;99.90;;;;;;5051346;28;20036;-74
2022/04/14 05:16:01;;;;;;;7.32;4.40;;;15.20;99.90;;;;;;5051172;28;20433;-73
2022/04/14 05:18:29;;;;;;;9.70;4.90;;;15.30;99.90;;;;;;5051214;28;20033;-74
2022/04/14 05:20:54;;;;;;;9.52;5.03;;;15.20;99.90;;;;;;5050982;28;20052;-74
2022/04/14 05:23:20;;;;;;;6.60;4.75;;;15.20;99.90;;;;;;5051126;28;20028;-73
2022/04/14 05:25:45;;;;;;;13.13;5.20;;;15.20;99.90;;;;;;5050528;28;20458;-73
2022/04/14 05:28:11;;;;;;;11.30;5.72;;;15.20;99.90;;;;;;5050251;28;20025;-73
2022/04/14 05:30:36;;;;;;;10.45;5.53;;;15.30;99.90;;;;;;5050812;28;20331;-73
2022/04/14 05:33:02;;;;;;;12.43;5.38;;;15.30;99.90;;;;;;5050633;28;20130;-73
2022/04/14 05:35:28;;;;;;;8.18;4.70;;;15.30;99.90;;;;;;5050424;28;20108;-71
2022/04/14 05:37:53;;;;;;;11.05;5.50;;;15.30;99.90;;;;;;5050481;28;20037;-73
2022/04/14 05:40:19;;;;;;;10.00;5.70;;;15.30;99.90;;;;;;5051151;28;20279;-72
2022/04/14 05:42:46;;;;;;;9.07;5.15;;;15.30;99.90;;;;;;5049538;28;20056;-73
2022/04/14 05:45:13;;;;;;;7.97;4.73;;;15.30;99.90;;;;;;5049719;28;20041;-73
2022/04/14 05:47:39;;;;;;;12.57;5.00;;;15.20;99.90;;;;;;5050701;28;20361;-73
2022/04/14 05:50:05;;;;;;;8.43;5.25;;;15.30;99.90;;;;;;5050479;28;20112;-73
2022/04/14 05:52:31;;;;;;;10.15;5.82;;;15.30;99.90;;;;;;5050701;28;20023;-72
2022/04/14 05:55:01;;;;;;;9.73;5.78;;;15.30;99.90;;;;;;5050477;28;20037;-72
2022/04/14 05:57:30;;;;;;;9.85;5.45;;;15.40;99.90;;;;;;5049563;28;20110;-73
2022/04/14 05:59:57;;;;;;;11.45;6.00;;;15.30;99.90;;;;;;5050483;28;20056;-73
2022/04/14 06:02:23;;;;;;;8.98;5.18;;;15.40;99.90;;;;;;5050418;28;20029;-74
2022/04/14 06:04:48;;;;;;;9.23;4.80;;;15.40;99.90;;;;;;5049025;28;20115;-74
2022/04/14 06:07:14;;;;;;;7.93;5.20;;;15.30;99.90;;;;;;5031506;28;20313;-70
2022/04/14 06:09:39;;;;;;;10.75;5.97;;;15.30;99.90;;;;;;5030454;28;20701;-72
2022/04/14 06:12:06;;;;;;;9.35;5.43;;;15.30;99.90;;;;;;5030563;28;20466;-73
2022/04/14 06:14:33;;;;;;;10.35;5.20;;;15.10;99.90;;;;;;5045981;28;20030;-73
2022/04/14 06:16:59;;;;;;;8.15;4.65;;;15.20;99.90;;;;;;5030641;28;20033;-73
2022/04/14 06:19:25;;;;;;;8.18;4.80;;;15.20;99.90;;;;;;5030827;28;20026;-74
2022/04/14 06:21:51;;;;;;;9.68;4.82;;;15.20;99.90;;;;;;5030332;28;20038;-75
2022/04/14 06:24:16;;;;;;;8.18;5.15;;;15.20;99.90;;;;;;5045839;28;20029;-73
2022/04/14 06:26:42;;;;;;;11.65;5.72;;;15.10;99.90;;;;;;5030473;28;20030;-73
2022/04/14 06:29:08;;;;;;;9.50;5.05;;;15.10;99.90;;;;;;5030437;28;20030;-74
2022/04/14 06:31:35;;;;;;;8.15;5.22;;;15.20;99.90;;;;;;5030679;28;20152;-71
2022/04/14 06:34:02;;;;;;;8.25;5.38;;;15.20;99.90;;;;;;5030286;28;20025;-70
2022/04/14 06:36:27;;;;;;;10.05;5.97;;;15.20;99.90;;;;;;5031173;28;20053;-72
2022/04/14 06:38:53;;;;;;;10.88;5.75;;;15.20;99.90;;;;;;5033717;28;20064;-73
2022/04/14 06:41:19;;;;;;;10.32;5.50;;;15.30;99.90;;;;;;5033702;28;20056;-74
2022/04/14 06:43:49;;;;;;;12.60;5.68;;;15.30;99.90;;;;;;5032723;28;20463;-71
2022/04/14 06:46:15;;;;;;;12.00;6.10;;;15.30;99.90;;;;;;5034182;28;20022;-74
2022/04/14 06:48:41;;;;;;;12.25;5.85;;;15.30;99.90;;;;;;5029474;28;20042;-76
2022/04/14 06:51:06;;;;;;;11.02;5.53;;;15.40;99.90;;;;;;5025242;28;20037;-72
2022/04/14 06:53:32;;;;;;;11.95;5.43;;;15.40;99.90;;;;;;5033654;28;20025;-72
2022/04/14 06:55:58;;;;;;;14.43;7.03;;;15.40;99.90;;;;;;5032498;28;20112;-71
2022/04/14 06:58:23;;;;;;;12.00;6.28;;;15.40;99.90;;;;;;5034042;28;20088;-71
2022/04/14 07:00:49;;;;;;;9.23;5.57;;;15.40;99.90;;;;;;5029037;28;20049;-71
2022/04/14 07:03:14;;;;;;;12.40;6.38;;;15.30;99.90;;;;;;5026371;28;20057;-72
2022/04/14 07:05:40;;;;;;;12.85;6.35;;;15.30;99.90;;;;;;5033648;28;20029;-72
2022/04/14 07:08:06;;;;;;;14.18;6.63;;;15.30;99.90;;;;;;5033262;28;20395;-72
2022/04/14 07:10:32;;;;;;;10.70;5.43;;;15.30;99.90;;;;;;5033828;28;20406;-70
2022/04/14 07:12:57;;;;;;;12.88;5.40;;;15.60;99.90;;;;;;5033342;28;20029;-71
2022/04/14 07:15:23;;;;;;;12.00;5.55;;;15.50;99.90;;;;;;5033241;28;20025;-71
2022/04/14 07:17:49;;;;;;;14.52;6.10;;;15.50;99.90;;;;;;5033159;28;20060;-72
2022/04/14 07:20:14;;;;;;;14.80;6.50;;;15.60;99.90;;;;;;5033275;28;20451;-72
2022/04/14 07:22:49;;;;;;;14.20;5.95;;;15.70;99.90;;;;;;5033475;28;20037;-71
2022/04/14 07:25:15;;;;;;;27.88;15.65;;;15.60;99.90;;;;;;5033502;28;20041;-71
2022/04/14 07:27:42;;;;;;;24.20;11.50;;;15.70;99.90;;;;;;5033267;28;20087;-72
2022/04/14 07:30:09;;;;;;;16.60;7.10;;;15.70;99.90;;;;;;5033270;28;20045;-70
2022/04/14 07:32:43;;;;;;;14.90;6.68;;;15.80;99.90;;;;;;5028477;28;20033;-71
2022/04/14 07:35:09;;;;;;;10.45;5.43;;;15.80;99.90;;;;;;5016677;28;20507;-70
2022/04/14 07:37:36;;;;;;;18.77;6.30;;;15.80;99.90;;;;;;5033090;28;20046;-71
2022/04/14 07:40:02;;;;;;;15.23;5.63;;;15.80;99.80;;;;;;5033037;28;20037;-72
2022/04/14 07:42:33;;;;;;;16.67;5.72;;;15.80;99.90;;;;;;5032835;28;20030;-70
2022/04/14 07:44:59;;;;;;;14.38;5.55;;;15.80;99.90;;;;;;5032869;28;20040;-71
2022/04/14 07:47:24;;;;;;;14.55;5.22;;;15.80;99.60;;;;;;5033030;28;20356;-72
2022/04/14 07:49:50;;;;;;;14.18;5.75;;;15.90;99.70;;;;;;5048417;28;20078;-70
2022/04/14 07:52:15;;;;;;;16.48;5.72;;;16.00;99.70;;;;;;5032422;28;20013;-69
2022/04/14 07:54:41;;;;;;;16.02;5.38;;;16.00;99.50;;;;;;5032962;28;20033;-69
2022/04/14 07:57:06;;;;;;;14.75;5.18;;;16.00;99.50;;;;;;5032547;28;20042;-70
2022/04/14 07:59:32;;;;;;;12.35;6.07;;;15.90;99.30;;;;;;5032569;28;20435;-69
2022/04/14 08:02:00;;;;;;;11.68;4.75;;;16.10;99.40;;;;;;5032345;28;20100;-70
2022/04/14 08:04:26;;;;;;;7.80;4.95;;;16.10;99.20;;;;;;5032763;28;20076;-69
2022/04/14 08:06:52;;;;;;;10.05;5.00;;;16.00;99.10;;;;;;5027708;28;20410;-68
2022/04/14 08:09:18;;;;;;;13.30;5.63;;;16.10;99.10;;;;;;5025342;28;20021;-69
2022/04/14 08:11:43;;;;;;;15.07;5.60;;;16.10;98.90;;;;;;5032309;28;20451;-70
2022/04/14 08:14:09;;;;;;;16.95;5.35;;;16.20;99.00;;;;;;5032233;28;20087;-70
2022/04/14 08:16:34;;;;;;;13.23;5.28;;;16.10;98.70;;;;;;5032527;28;20029;-69
2022/04/14 08:19:00;;;;;;;12.13;5.55;;;16.30;98.70;;;;;;5032179;28;20076;-69
2022/04/14 08:21:26;;;;;;;13.00;4.97;;;16.40;98.80;;;;;;5032081;28;20105;-69
2022/04/14 08:23:53;;;;;;;20.67;6.13;;;16.40;98.60;;;;;;5031868;28;20053;-69
2022/04/14 08:26:18;;;;;;;13.48;5.60;;;16.50;98.30;;;;;;5031743;28;20029;-70
2022/04/14 08:28:48;;;;;;;14.55;5.75;;;16.50;98.20;;;;;;5030881;28;20474;-69
2022/04/14 08:31:15;;;;;;;12.13;5.38;;;16.50;98.30;;;;;;5032213;28;20033;-68
2022/04/14 08:33:41;;;;;;;15.93;6.57;;;16.50;97.90;;;;;;5031802;28;20041;-69
2022/04/14 08:36:12;;;;;;;14.10;6.22;;;16.50;98.30;;;;;;5031284;28;20049;-69
2022/04/14 08:38:39;;;;;;;18.08;7.95;;;16.70;98.20;;;;;;5031604;28;20061;-68
2022/04/14 08:41:08;;;;;;;19.33;7.72;;;16.80;98.00;;;;;;5030727;28;20087;-70
2022/04/14 08:43:34;;;;;;;13.43;7.05;;;16.90;97.90;;;;;;5032085;28;20025;-70
2022/04/14 08:46:01;;;;;;;19.77;8.50;;;17.00;97.90;;;;;;5031674;28;20059;-69
2022/04/14 08:48:28;;;;;;;25.77;10.70;;;17.10;97.70;;;;;;5031585;28;20037;-70
2022/04/14 08:50:54;;;;;;;19.80;8.95;;;17.20;97.80;;;;;;5030268;28;20414;-71
2022/04/14 08:53:23;;;;;;;22.35;10.55;;;17.50;97.70;;;;;;5031503;28;20453;-74
2022/04/14 08:55:50;;;;;;;22.45;9.77;;;17.70;97.20;;;;;;5031425;28;20022;-74
2022/04/14 08:58:18;;;;;;;22.33;10.10;;;17.90;96.80;;;;;;5030637;28;20031;-75
2022/04/14 09:00:45;;;;;;;22.40;10.30;;;18.10;96.40;;;;;;5031050;28;20083;-75
2022/04/14 09:03:13;;;;;;;17.45;9.30;;;18.20;96.20;;;;;;5031185;28;20029;-73
2022/04/14 09:05:38;;;;;;;21.25;10.57;;;18.60;96.00;;;;;;5031369;28;20030;-71
2022/04/14 09:08:04;;;;;;;25.10;10.98;;;18.60;95.70;;;;;;5031167;28;20477;-75
2022/04/14 09:10:30;;;;;;;31.35;15.98;;;18.70;95.50;;;;;;5031637;28;20110;-75
2022/04/14 09:12:56;;;;;;;28.52;15.15;;;18.90;95.50;;;;;;5031257;28;20111;-75
2022/04/14 09:15:23;;;;;;;22.17;11.10;;;18.90;95.00;;;;;;5026890;28;20026;-76
2022/04/14 09:17:48;;;;;;;27.42;12.70;;;18.80;95.00;;;;;;5019182;28;20033;-73
2022/04/14 09:20:38;;;;;;;20.27;11.15;;;18.90;94.90;;;;;;5031030;28;20478;-74
2022/04/14 09:23:15;;;;;;;21.20;10.82;;;18.70;94.60;;;;;;5030776;28;20029;-74
2022/04/14 09:25:42;;;;;;;21.58;10.73;;;18.50;94.60;;;;;;5031305;28;20025;-74
2022/04/14 09:28:13;;;;;;;27.08;11.65;;;18.50;94.70;;;;;;5030870;28;20041;-74
2022/04/14 09:30:40;;;;;;;21.05;10.60;;;18.30;94.30;;;;;;5030773;28;20026;-74
2022/04/14 09:33:14;;;;;;;24.05;11.10;;;18.20;94.40;;;;;;5026395;28;20108;-75
2022/04/14 09:35:39;;;;;;;23.95;11.35;;;18.10;94.70;;;;;;5018525;28;20075;-76
2022/04/14 09:38:07;;;;;;;24.42;10.88;;;18.10;94.50;;;;;;5030736;28;20042;-74
2022/04/14 09:40:37;;;;;;;22.40;10.80;;;18.00;94.50;;;;;;5031045;28;20030;-74
2022/04/14 09:43:05;;;;;;;20.00;10.07;;;18.00;94.70;;;;;;5030646;28;20037;-73
2022/04/14 09:45:32;;;;;;;20.73;10.32;;;17.90;94.60;;;;;;5030493;28;20095;-77
2022/04/14 09:48:06;;;;;;;27.35;11.75;;;17.80;94.70;;;;;;5026248;28;20427;-73
2022/04/14 09:50:40;;;;;;;21.20;10.40;;;17.80;94.60;;;;;;5017644;28;20064;-75
2022/04/14 09:53:12;;;;;;;21.63;10.30;;;17.80;94.60;;;;;;5030286;28;20029;-75
2022/04/14 09:55:54;;;;;;;20.42;10.77;;;17.80;94.70;;;;;;5030960;28;20485;-74
2022/04/14 09:58:24;;;;;;;21.65;10.88;;;17.80;94.40;;;;;;5030405;28;20124;-75
2022/04/14 10:00:52;;;;;;;23.25;10.88;;;17.90;94.50;;;;;;5030657;28;20029;-75
2022/04/14 10:03:19;;;;;;;;;;;18.10;94.20;;;;;;5030952;28;20029;-73
2022/04/14 10:05:46;;;;;;;23.58;11.75;;;18.20;94.00;;;;;;5030415;28;19966;-79
2022/04/14 10:08:13;;;;;;;27.57;12.37;;;18.30;93.90;;;;;;5030383;28;20107;-78
2022/04/14 10:10:45;;;;;;;20.58;10.52;;;18.60;93.90;;;;;;5029984;28;20398;-74
2022/04/14 10:13:14;;;;;;;21.20;10.40;;;18.50;93.20;;;;;;5034820;28;20115;-73
2022/04/14 10:15:45;;;;;;;19.52;10.30;;;18.20;93.20;;;;;;5034162;28;20040;-75
2022/04/14 10:18:13;;;;;;;24.75;11.23;;;18.20;93.40;;;;;;5029892;28;20061;-73
2022/04/14 10:20:40;;;;;;;;;;;18.50;93.30;;;;;;5022693;28;20045;-74
2022/04/14 10:23:08;;;;;;;20.92;11.30;;;18.50;93.00;;;;;;5033267;28;20000;-73
2022/04/14 10:25:38;;;;;;;22.08;11.02;;;18.60;93.10;;;;;;5034483;28;20029;-73
2022/04/14 10:28:10;;;;;;;25.65;11.15;;;18.70;93.00;;;;;;5033881;28;20128;-73
2022/04/14 10:30:35;;;;;;;28.05;12.98;;;18.90;92.70;;;;;;5034221;28;20105;-73
2022/04/14 10:33:01;;;;;;;25.08;11.40;;;18.80;92.50;;;;;;5033748;28;20547;-74
2022/04/14 10:35:29;;;;;;;24.27;11.93;;;18.80;92.50;;;;;;5033698;28;20041;-74
2022/04/14 10:38:06;;;;;;;;;;;19.00;92.70;;;;;;5034045;28;20109;-74
2022/04/14 10:40:33;;;;;;;23.60;10.77;;;19.20;92.30;;;;;;5049929;28;19933;-72
2022/04/14 10:42:59;;;;;;;21.80;12.18;;;19.00;92.10;;;;;;5033820;28;20076;-73
2022/04/14 10:45:25;;;;;;;21.20;11.15;;;19.00;92.20;;;;;;5033697;28;20030;-74
2022/04/14 10:47:51;;;;;;;25.50;11.00;;;19.20;91.90;;;;;;5033527;28;20037;-74
2022/04/14 10:50:31;;;;;;;22.38;11.07;;;19.20;92.00;;;;;;5033892;28;20124;-74
2022/04/14 10:53:04;;;;;;;24.83;13.20;;;19.50;92.10;;;;;;5033506;28;20459;-74
2022/04/14 10:55:44;;;;;;;21.15;11.38;;;20.00;91.70;;;;;;5033086;28;20029;-74
2022/04/14 10:58:36;;;;;;;20.08;10.07;;;20.30;90.70;;;;;;5032630;28;20041;-74
2022/04/14 11:01:04;;;;;;;21.73;12.65;;;20.40;89.80;;;;;;5009609;28;20025;-75
2022/04/14 11:03:48;;;;;;;22.77;9.70;;;20.30;89.60;;;;;;5029042;28;20411;-73
2022/04/14 11:06:54;;;;;;;18.48;8.25;;;20.20;89.90;;;;;;5026213;28;20251;-74
2022/04/14 11:09:57;;;;;;;14.52;7.68;;;20.50;88.40;;;;;;4972355;28;20062;-75
2022/04/14 11:12:41;;;;;;;16.55;8.85;;;20.70;87.60;;;;;;4943016;28;20421;-75
2022/04/14 11:15:08;;;;;;;15.63;8.05;;;20.30;88.20;;;;;;5024438;28;20120;-76
2022/04/14 11:17:42;;;;;;;15.20;7.75;;;20.20;88.40;;;;;;5032893;28;20040;-76
2022/04/14 11:20:38;;;;;;;14.25;7.70;;;20.30;88.20;;;;;;5033087;28;20103;-74
2022/04/14 11:23:07;;;;;;;15.40;7.65;;;20.10;88.30;;;;;;5031752;28;20026;-72
2022/04/14 11:25:51;;;;;;;17.38;8.18;;;20.30;88.40;;;;;;5033506;28;20040;-73
2022/04/14 11:28:30;;;;;;;16.90;7.88;;;20.60;88.80;;;;;;5033224;28;20073;-72
2022/04/14 11:31:17;;;;;;;10.00;6.38;;;21.00;88.00;;;;;;5028721;28;20037;-72
2022/04/14 11:33:47;;;;;;;17.38;6.43;;;21.20;86.80;;;;;;5029356;28;20479;-71
2022/04/14 11:36:16;;;;;;;11.88;6.20;;;21.20;85.90;;;;;;5032655;28;20060;-83
2022/04/14 11:38:55;;;;;;;19.17;7.03;;;21.00;85.00;;;;;;5032883;28;20042;-72
2022/04/14 11:41:44;;;;;;;10.32;6.20;;;20.50;85.10;;;;;;5032862;28;20044;-72
2022/04/14 11:44:14;;;;;;;14.75;6.75;;;20.60;86.60;;;;;;5032857;28;20034;-70
2022/04/14 11:46:42;;;;;;;13.07;6.10;;;21.00;85.50;;;;;;5033234;28;20064;-73
2022/04/14 11:49:09;;;;;;;12.70;6.60;;;21.10;84.70;;;;;;5038122;28;20362;-70
2022/04/14 11:51:56;;;;;;;14.77;6.07;;;21.10;85.10;;;;;;5032716;28;20107;-70
2022/04/14 11:54:22;;;;;;;14.83;7.10;;;21.10;85.40;;;;;;5031380;28;20286;-72
2022/04/14 11:56:56;;;;;;;13.50;7.25;;;21.30;84.00;;;;;;5032396;28;20087;-72
2022/04/14 11:59:38;;;;;;;14.85;7.60;;;21.20;83.60;;;;;;5031466;28;20048;-79
2022/04/14 12:02:07;;;;;;;17.00;8.30;;;21.10;84.50;;;;;;5032057;28;20286;-70
2022/04/14 12:04:38;;;;;;;13.65;7.30;;;21.30;84.90;;;;;;5032823;28;20030;-73
2022/04/14 12:07:04;;;;;;;11.40;6.80;;;21.20;84.40;;;;;;5032421;28;20362;-71
2022/04/14 12:09:30;;;;;;;16.23;6.78;;;21.30;82.80;;;;;;5032469;28;20025;-71
2022/04/14 12:11:56;;;;;;;14.45;7.18;;;21.10;83.10;;;;;;5032278;28;20049;-69
2022/04/14 12:14:21;;;;;;;17.00;6.75;;;21.30;83.30;;;;;;5032264;28;20176;-73
2022/04/14 12:16:54;;;;;;;14.35;6.57;;;21.50;83.10;;;;;;5031688;28;20339;-72
2022/04/14 12:19:23;;;;;;;14.15;7.68;;;21.70;82.60;;;;;;5031481;28;20040;-71
2022/04/14 12:22:02;;;;;;;16.75;7.05;;;21.30;82.80;;;;;;5032210;28;20664;-74
2022/04/14 12:24:29;;;;;;;16.80;7.30;;;21.40;83.00;;;;;;5027630;28;20026;-79
2022/04/14 12:26:55;;;;;;;18.27;11.45;;;21.30;83.10;;;;;;5022208;28;20053;-78
2022/04/14 12:29:22;;;;;;;12.52;7.22;;;21.20;83.30;;;;;;5030821;28;20158;-72
2022/04/14 12:31:48;;;;;;;15.15;8.05;;;21.20;83.70;;;;;;5031914;28;20151;-73
2022/04/14 12:34:14;;;;;;;16.15;8.20;;;21.00;83.60;;;;;;5031623;28;20087;-72
2022/04/14 12:36:40;;;;;;;14.05;7.65;;;20.80;84.20;;;;;;5031719;28;20120;-74
2022/04/14 12:39:18;;;;;;;18.20;8.60;;;20.80;84.40;;;;;;5027397;28;20498;-77
2022/04/14 12:41:43;;;;;;;16.77;8.02;;;20.60;84.00;;;;;;5019283;28;20033;-74